sensor_id;sensor_type;location;lat;lon;timestamp;noise_LAeq;noise_LA_min;noise_LA_max;noise_LA01;noise_LA95
61321;Laerm;17737;52.586;13.284;2023-09-19T00:01:04;52.36;51.15;58.88;;
61321;Laerm;17737;52.586;13.284;2023-09-19T00:03:34;52.38;51.37;61.26;;
61321;Laerm;17737;52.586;13.284;2023-09-19T00:06:05;52.38;51.24;58.40;;
61321;Laerm;17737;52.586;13.284;2023-09-19T00:08:34;52.52;51.26;62.62;;
61321;Laerm;17737;52.586;13.284;2023-09-19T00:11:02;52.37;51.21;61.26;;
61321;Laerm;17737;52.586;13.284;2023-09-19T00:13:30;52.51;51.12;59.32;;
61321;Laerm;17737;52.586;13.284;2023-09-19T00:15:59;53.09;51.06;59.16;;
61321;Laerm;17737;52.586;13.284;2023-09-19T00:18:28;52.36;51.12;59.90;;
61321;Laerm;17737;52.586;13.284;2023-09-19T00:20:59;52.47;51.31;60.27;;
61321;Laerm;17737;52.586;13.284;2023-09-19T00:23:27;52.37;51.12;58.84;;
61321;Laerm;17737;52.586;13.284;2023-09-19T00:25:58;53.07;50.99;64.79;;
61321;Laerm;17737;52.586;13.284;2023-09-19T00:28:27;52.61;51.05;60.51;;
61321;Laerm;17737;52.586;13.284;2023-09-19T00:30:56;52.41;51.22;68.75;;
61321;Laerm;17737;52.586;13.284;2023-09-19T00:33:29;52.55;51.21;58.97;;
61321;Laerm;17737;52.586;13.284;2023-09-19T00:35:57;52.50;51.21;68.70;;
61321;Laerm;17737;52.586;13.284;2023-09-19T00:38:26;52.65;51.30;68.76;;
61321;Laerm;17737;52.586;13.284;2023-09-19T00:40:55;52.39;51.21;59.06;;
61321;Laerm;17737;52.586;13.284;2023-09-19T00:43:27;52.59;51.19;60.56;;
61321;Laerm;17737;52.586;13.284;2023-09-19T00:45:56;52.84;51.11;68.95;;
61321;Laerm;17737;52.586;13.284;2023-09-19T00:48:29;52.40;51.03;58.72;;
61321;Laerm;17737;52.586;13.284;2023-09-19T00:51:02;52.40;51.15;59.77;;
61321;Laerm;17737;52.586;13.284;2023-09-19T00:53:32;52.40;51.29;61.03;;
61321;Laerm;17737;52.586;13.284;2023-09-19T00:56:02;52.57;51.26;68.91;;
61321;Laerm;17737;52.586;13.284;2023-09-19T00:58:32;52.36;51.20;58.05;;
61321;Laerm;17737;52.586;13.284;2023-09-19T01:01:02;52.36;51.25;60.37;;
61321;Laerm;17737;52.586;13.284;2023-09-19T01:03:36;52.36;51.03;59.29;;
61321;Laerm;17737;52.586;13.284;2023-09-19T01:06:04;52.51;51.22;60.04;;
61321;Laerm;17737;52.586;13.284;2023-09-19T01:08:34;52.42;51.06;68.38;;
61321;Laerm;17737;52.586;13.284;2023-09-19T01:11:13;52.39;51.22;68.97;;
61321;Laerm;17737;52.586;13.284;2023-09-19T01:13:55;52.34;51.16;58.81;;
61321;Laerm;17737;52.586;13.284;2023-09-19T01:16:36;52.32;51.14;58.95;;
61321;Laerm;17737;52.586;13.284;2023-09-19T01:19:53;52.91;51.22;65.12;;
61321;Laerm;17737;52.586;13.284;2023-09-19T01:22:37;52.39;51.23;68.66;;
61321;Laerm;17737;52.586;13.284;2023-09-19T01:25:54;52.71;51.19;60.06;;
61321;Laerm;17737;52.586;13.284;2023-09-19T01:28:42;52.27;51.00;59.48;;
61321;Laerm;17737;52.586;13.284;2023-09-19T01:31:17;52.26;51.03;59.62;;
61321;Laerm;17737;52.586;13.284;2023-09-19T01:33:58;52.25;50.94;59.72;;
61321;Laerm;17737;52.586;13.284;2023-09-19T01:36:32;52.24;51.04;58.49;;
61321;Laerm;17737;52.586;13.284;2023-09-19T01:39:05;52.27;50.89;58.39;;
61321;Laerm;17737;52.586;13.284;2023-09-19T01:41:56;52.38;50.91;58.48;;
61321;Laerm;17737;52.586;13.284;2023-09-19T01:44:37;52.24;51.06;58.50;;
61321;Laerm;17737;52.586;13.284;2023-09-19T01:47:25;52.24;51.14;57.21;;
61321;Laerm;17737;52.586;13.284;2023-09-19T01:50:02;52.52;51.22;57.96;;
61321;Laerm;17737;52.586;13.284;2023-09-19T01:52:47;52.28;50.99;68.01;;
61321;Laerm;17737;52.586;13.284;2023-09-19T01:55:17;52.24;51.05;58.19;;
61321;Laerm;17737;52.586;13.284;2023-09-19T01:57:54;52.23;51.01;56.65;;
61321;Laerm;17737;52.586;13.284;2023-09-19T02:00:28;52.51;50.95;57.46;;
61321;Laerm;17737;52.586;13.284;2023-09-19T02:02:59;52.35;50.82;58.59;;
61321;Laerm;17737;52.586;13.284;2023-09-19T02:05:28;52.58;51.17;57.87;;
61321;Laerm;17737;52.586;13.284;2023-09-19T02:07:57;52.92;51.29;59.65;;
61321;Laerm;17737;52.586;13.284;2023-09-19T02:10:25;52.27;50.98;58.95;;
61321;Laerm;17737;52.586;13.284;2023-09-19T02:12:53;52.73;51.19;61.06;;
61321;Laerm;17737;52.586;13.284;2023-09-19T02:15:21;52.45;50.98;57.83;;
61321;Laerm;17737;52.586;13.284;2023-09-19T02:17:49;52.26;51.07;58.76;;
61321;Laerm;17737;52.586;13.284;2023-09-19T02:20:19;52.27;51.14;57.08;;
61321;Laerm;17737;52.586;13.284;2023-09-19T02:22:47;52.57;51.22;68.22;;
61321;Laerm;17737;52.586;13.284;2023-09-19T02:25:16;52.31;51.18;68.30;;
61321;Laerm;17737;52.586;13.284;2023-09-19T02:27:46;52.80;51.04;58.92;;
61321;Laerm;17737;52.586;13.284;2023-09-19T02:30:14;52.71;51.32;57.26;;
61321;Laerm;17737;52.586;13.284;2023-09-19T02:32:42;53.21;51.07;60.24;;
61321;Laerm;17737;52.586;13.284;2023-09-19T02:35:11;52.55;50.85;68.29;;
61321;Laerm;17737;52.586;13.284;2023-09-19T02:37:42;52.39;51.17;55.51;;
61321;Laerm;17737;52.586;13.284;2023-09-19T02:40:12;52.45;51.13;58.02;;
61321;Laerm;17737;52.586;13.284;2023-09-19T02:42:47;52.31;51.03;57.90;;
61321;Laerm;17737;52.586;13.284;2023-09-19T02:45:16;52.25;51.04;53.37;;
61321;Laerm;17737;52.586;13.284;2023-09-19T02:47:48;52.26;51.08;59.39;;
61321;Laerm;17737;52.586;13.284;2023-09-19T02:50:17;53.02;51.16;61.74;;
61321;Laerm;17737;52.586;13.284;2023-09-19T02:52:47;52.27;50.92;58.53;;
61321;Laerm;17737;52.586;13.284;2023-09-19T02:55:18;52.59;51.17;56.47;;
61321;Laerm;17737;52.586;13.284;2023-09-19T02:57:47;52.87;50.95;60.49;;
61321;Laerm;17737;52.586;13.284;2023-09-19T03:00:17;52.47;51.00;67.65;;
61321;Laerm;17737;52.586;13.284;2023-09-19T03:02:48;52.36;51.25;58.74;;
61321;Laerm;17737;52.586;13.284;2023-09-19T03:05:16;52.87;50.62;56.74;;
61321;Laerm;17737;52.586;13.284;2023-09-19T03:07:47;53.55;50.99;68.24;;
61321;Laerm;17737;52.586;13.284;2023-09-19T03:10:18;53.21;51.15;64.05;;
61321;Laerm;17737;52.586;13.284;2023-09-19T03:12:47;52.73;51.00;68.28;;
61321;Laerm;17737;52.586;13.284;2023-09-19T03:15:15;52.93;51.22;59.48;;
61321;Laerm;17737;52.586;13.284;2023-09-19T03:17:45;53.48;50.97;67.92;;
61321;Laerm;17737;52.586;13.284;2023-09-19T03:20:15;53.10;51.24;59.02;;
61321;Laerm;17737;52.586;13.284;2023-09-19T03:22:44;53.79;51.37;59.47;;
61321;Laerm;17737;52.586;13.284;2023-09-19T03:25:14;52.75;50.95;57.77;;
61321;Laerm;17737;52.586;13.284;2023-09-19T03:27:44;53.75;51.01;59.92;;
61321;Laerm;17737;52.586;13.284;2023-09-19T03:30:13;53.24;51.00;57.40;;
61321;Laerm;17737;52.586;13.284;2023-09-19T03:32:45;53.39;51.35;58.04;;
61321;Laerm;17737;52.586;13.284;2023-09-19T03:35:14;53.33;51.13;57.89;;
61321;Laerm;17737;52.586;13.284;2023-09-19T03:37:43;55.81;51.21;71.52;;
61321;Laerm;17737;52.586;13.284;2023-09-19T03:40:14;53.13;51.10;63.53;;
61321;Laerm;17737;52.586;13.284;2023-09-19T03:42:43;53.15;50.74;58.95;;
61321;Laerm;17737;52.586;13.284;2023-09-19T03:45:11;53.08;51.17;62.62;;
61321;Laerm;17737;52.586;13.284;2023-09-19T03:47:40;53.39;51.10;59.47;;
61321;Laerm;17737;52.586;13.284;2023-09-19T03:50:09;53.74;51.28;60.08;;
61321;Laerm;17737;52.586;13.284;2023-09-19T03:52:39;52.27;50.89;56.77;;
61321;Laerm;17737;52.586;13.284;2023-09-19T03:55:08;53.67;50.89;61.30;;
61321;Laerm;17737;52.586;13.284;2023-09-19T03:57:38;53.31;51.01;67.18;;
61321;Laerm;17737;52.586;13.284;2023-09-19T04:00:07;53.76;51.16;68.29;;
61321;Laerm;17737;52.586;13.284;2023-09-19T04:02:39;53.38;50.78;60.16;;
61321;Laerm;17737;52.586;13.284;2023-09-19T04:05:08;53.07;50.88;67.61;;
61321;Laerm;17737;52.586;13.284;2023-09-19T04:07:37;53.79;50.97;67.56;;
61321;Laerm;17737;52.586;13.284;2023-09-19T04:10:06;53.36;51.20;59.82;;
61321;Laerm;17737;52.586;13.284;2023-09-19T04:12:40;55.44;51.35;67.57;;
61321;Laerm;17737;52.586;13.284;2023-09-19T04:15:08;54.78;51.12;63.95;;
61321;Laerm;17737;52.586;13.284;2023-09-19T04:17:40;53.34;50.99;58.41;;
61321;Laerm;17737;52.586;13.284;2023-09-19T04:20:09;54.37;51.34;61.19;;
61321;Laerm;17737;52.586;13.284;2023-09-19T04:22:39;53.86;50.97;58.49;;
61321;Laerm;17737;52.586;13.284;2023-09-19T04:25:07;53.74;50.71;58.98;;
61321;Laerm;17737;52.586;13.284;2023-09-19T04:27:35;53.56;50.95;60.79;;
61321;Laerm;17737;52.586;13.284;2023-09-19T04:30:08;53.00;51.17;68.25;;
61321;Laerm;17737;52.586;13.284;2023-09-19T04:32:39;53.92;51.17;59.03;;
61321;Laerm;17737;52.586;13.284;2023-09-19T04:35:09;53.95;51.12;66.57;;
61321;Laerm;17737;52.586;13.284;2023-09-19T04:37:38;53.71;50.87;59.79;;
61321;Laerm;17737;52.586;13.284;2023-09-19T04:40:07;54.98;51.14;62.92;;
61321;Laerm;17737;52.586;13.284;2023-09-19T04:42:40;53.15;50.74;59.85;;
61321;Laerm;17737;52.586;13.284;2023-09-19T04:45:10;54.24;50.81;63.02;;
61321;Laerm;17737;52.586;13.284;2023-09-19T04:47:39;54.44;50.77;61.95;;
61321;Laerm;17737;52.586;13.284;2023-09-19T04:50:09;54.65;51.07;60.79;;
61321;Laerm;17737;52.586;13.284;2023-09-19T04:52:41;54.46;51.20;59.31;;
61321;Laerm;17737;52.586;13.284;2023-09-19T04:55:12;54.66;50.96;61.20;;
61321;Laerm;17737;52.586;13.284;2023-09-19T04:57:44;54.06;51.16;59.61;;
61321;Laerm;17737;52.586;13.284;2023-09-19T05:00:16;55.02;50.89;67.44;;
61321;Laerm;17737;52.586;13.284;2023-09-19T05:02:49;54.40;51.17;60.74;;
61321;Laerm;17737;52.586;13.284;2023-09-19T05:05:18;54.13;51.13;65.08;;
61321;Laerm;17737;52.586;13.284;2023-09-19T05:07:46;55.18;51.21;67.40;;
61321;Laerm;17737;52.586;13.284;2023-09-19T05:10:15;54.67;51.52;59.06;;
61321;Laerm;17737;52.586;13.284;2023-09-19T05:12:46;54.14;51.12;58.42;;
61321;Laerm;17737;52.586;13.284;2023-09-19T05:15:16;55.47;51.07;68.12;;
61321;Laerm;17737;52.586;13.284;2023-09-19T05:17:48;54.79;51.18;66.39;;
61321;Laerm;17737;52.586;13.284;2023-09-19T05:20:20;55.13;51.45;59.42;;
61321;Laerm;17737;52.586;13.284;2023-09-19T05:23:00;55.19;51.09;60.57;;
61321;Laerm;17737;52.586;13.284;2023-09-19T05:25:36;56.78;51.16;72.88;;
61321;Laerm;17737;52.586;13.284;2023-09-19T05:28:06;56.53;51.28;65.00;;
61321;Laerm;17737;52.586;13.284;2023-09-19T05:30:37;57.60;51.73;72.19;;
61321;Laerm;17737;52.586;13.284;2023-09-19T05:33:07;55.71;51.50;63.26;;
61321;Laerm;17737;52.586;13.284;2023-09-19T05:35:35;55.06;51.26;67.22;;
61321;Laerm;17737;52.586;13.284;2023-09-19T05:38:06;55.25;51.37;61.61;;
61321;Laerm;17737;52.586;13.284;2023-09-19T05:40:35;54.65;50.79;66.98;;
61321;Laerm;17737;52.586;13.284;2023-09-19T05:43:05;54.38;51.24;60.34;;
61321;Laerm;17737;52.586;13.284;2023-09-19T05:45:33;54.44;51.18;60.59;;
61321;Laerm;17737;52.586;13.284;2023-09-19T05:48:09;53.72;51.09;59.84;;
61321;Laerm;17737;52.586;13.284;2023-09-19T05:50:38;55.42;51.38;62.55;;
61321;Laerm;17737;52.586;13.284;2023-09-19T05:53:06;54.33;51.15;59.44;;
61321;Laerm;17737;52.586;13.284;2023-09-19T05:55:34;54.09;51.08;58.95;;
61321;Laerm;17737;52.586;13.284;2023-09-19T05:58:03;54.48;51.32;60.06;;
61321;Laerm;17737;52.586;13.284;2023-09-19T06:00:31;54.10;50.90;60.05;;
61321;Laerm;17737;52.586;13.284;2023-09-19T06:03:01;54.55;51.41;60.29;;
61321;Laerm;17737;52.586;13.284;2023-09-19T06:05:31;54.67;51.52;67.70;;
61321;Laerm;17737;52.586;13.284;2023-09-19T06:07:59;54.07;51.01;66.37;;
61321;Laerm;17737;52.586;13.284;2023-09-19T06:10:28;54.55;51.21;61.76;;
61321;Laerm;17737;52.586;13.284;2023-09-19T06:12:58;54.30;50.72;59.59;;
61321;Laerm;17737;52.586;13.284;2023-09-19T06:15:26;54.11;51.20;59.38;;
61321;Laerm;17737;52.586;13.284;2023-09-19T06:17:55;55.14;51.28;63.41;;
61321;Laerm;17737;52.586;13.284;2023-09-19T06:20:25;54.13;50.95;58.65;;
61321;Laerm;17737;52.586;13.284;2023-09-19T06:22:55;54.93;50.98;66.63;;
61321;Laerm;17737;52.586;13.284;2023-09-19T06:25:23;54.91;50.89;66.42;;
61321;Laerm;17737;52.586;13.284;2023-09-19T06:27:53;54.68;51.14;66.49;;
61321;Laerm;17737;52.586;13.284;2023-09-19T06:30:22;54.75;51.12;63.59;;
61321;Laerm;17737;52.586;13.284;2023-09-19T06:32:56;53.98;51.09;60.83;;
61321;Laerm;17737;52.586;13.284;2023-09-19T06:35:27;54.92;51.18;62.40;;
61321;Laerm;17737;52.586;13.284;2023-09-19T06:37:58;53.96;50.82;61.13;;
61321;Laerm;17737;52.586;13.284;2023-09-19T06:40:26;53.80;51.13;65.34;;
61321;Laerm;17737;52.586;13.284;2023-09-19T06:42:55;54.30;51.00;66.16;;
61321;Laerm;17737;52.586;13.284;2023-09-19T06:45:23;53.77;50.97;64.99;;
61321;Laerm;17737;52.586;13.284;2023-09-19T06:47:54;53.30;50.86;58.33;;
61321;Laerm;17737;52.586;13.284;2023-09-19T06:50:25;54.29;50.93;60.04;;
61321;Laerm;17737;52.586;13.284;2023-09-19T06:52:55;55.54;50.78;67.02;;
61321;Laerm;17737;52.586;13.284;2023-09-19T06:55:27;53.33;50.78;58.62;;
61321;Laerm;17737;52.586;13.284;2023-09-19T06:57:58;53.73;50.59;58.82;;
61321;Laerm;17737;52.586;13.284;2023-09-19T07:00:26;55.78;50.96;68.74;;
61321;Laerm;17737;52.586;13.284;2023-09-19T07:02:56;53.06;50.51;64.92;;
61321;Laerm;17737;52.586;13.284;2023-09-19T07:05:27;54.11;51.16;63.80;;
61321;Laerm;17737;52.586;13.284;2023-09-19T07:07:56;54.12;50.92;60.06;;
61321;Laerm;17737;52.586;13.284;2023-09-19T07:10:28;54.00;50.94;59.73;;
61321;Laerm;17737;52.586;13.284;2023-09-19T07:12:57;53.70;50.92;58.50;;
61321;Laerm;17737;52.586;13.284;2023-09-19T07:15:26;54.37;50.98;65.25;;
61321;Laerm;17737;52.586;13.284;2023-09-19T07:17:55;53.61;50.93;64.54;;
61321;Laerm;17737;52.586;13.284;2023-09-19T07:20:24;53.99;50.90;65.43;;
61321;Laerm;17737;52.586;13.284;2023-09-19T07:22:54;53.22;50.69;63.57;;
61321;Laerm;17737;52.586;13.284;2023-09-19T07:25:22;54.40;51.05;71.66;;
61321;Laerm;17737;52.586;13.284;2023-09-19T07:27:54;54.15;50.78;60.10;;
61321;Laerm;17737;52.586;13.284;2023-09-19T07:30:23;54.30;50.66;60.26;;
61321;Laerm;17737;52.586;13.284;2023-09-19T07:32:52;53.92;50.95;66.59;;
61321;Laerm;17737;52.586;13.284;2023-09-19T07:35:20;53.97;50.69;61.72;;
61321;Laerm;17737;52.586;13.284;2023-09-19T07:37:48;53.77;50.85;60.17;;
61321;Laerm;17737;52.586;13.284;2023-09-19T07:40:19;53.17;50.62;60.47;;
61321;Laerm;17737;52.586;13.284;2023-09-19T07:42:48;53.59;50.79;63.26;;
61321;Laerm;17737;52.586;13.284;2023-09-19T07:45:19;54.27;50.90;65.04;;
61321;Laerm;17737;52.586;13.284;2023-09-19T07:47:48;53.80;50.97;64.28;;
61321;Laerm;17737;52.586;13.284;2023-09-19T07:50:18;53.44;50.76;58.23;;
61321;Laerm;17737;52.586;13.284;2023-09-19T07:52:46;53.51;50.87;64.01;;
61321;Laerm;17737;52.586;13.284;2023-09-19T07:55:17;53.91;50.86;58.67;;
61321;Laerm;17737;52.586;13.284;2023-09-19T07:57:47;54.11;50.53;63.79;;
61321;Laerm;17737;52.586;13.284;2023-09-19T08:00:16;53.34;50.74;62.65;;
61321;Laerm;17737;52.586;13.284;2023-09-19T08:02:45;53.91;50.68;63.49;;
61321;Laerm;17737;52.586;13.284;2023-09-19T08:05:23;54.08;50.83;60.00;;
61321;Laerm;17737;52.586;13.284;2023-09-19T08:07:51;53.77;50.75;60.33;;
61321;Laerm;17737;52.586;13.284;2023-09-19T08:10:19;53.56;50.74;57.80;;
61321;Laerm;17737;52.586;13.284;2023-09-19T08:12:48;54.78;50.71;64.49;;
61321;Laerm;17737;52.586;13.284;2023-09-19T08:15:22;53.89;50.84;58.84;;
61321;Laerm;17737;52.586;13.284;2023-09-19T08:17:52;54.06;50.94;60.50;;
61321;Laerm;17737;52.586;13.284;2023-09-19T08:20:20;53.93;50.76;64.32;;
61321;Laerm;17737;52.586;13.284;2023-09-19T08:22:49;53.63;50.88;58.68;;
61321;Laerm;17737;52.586;13.284;2023-09-19T08:25:20;53.35;50.85;59.22;;
61321;Laerm;17737;52.586;13.284;2023-09-19T08:27:48;53.43;50.85;65.63;;
61321;Laerm;17737;52.586;13.284;2023-09-19T08:30:21;53.33;50.59;64.66;;
61321;Laerm;17737;52.586;13.284;2023-09-19T08:32:57;53.73;51.08;62.37;;
61321;Laerm;17737;52.586;13.284;2023-09-19T08:35:26;54.43;50.61;62.47;;
61321;Laerm;17737;52.586;13.284;2023-09-19T08:37:55;52.90;50.90;66.00;;
61321;Laerm;17737;52.586;13.284;2023-09-19T08:40:23;54.35;51.00;60.23;;
61321;Laerm;17737;52.586;13.284;2023-09-19T08:42:57;54.53;51.07;61.36;;
61321;Laerm;17737;52.586;13.284;2023-09-19T08:45:26;53.95;50.76;62.01;;
61321;Laerm;17737;52.586;13.284;2023-09-19T08:48:15;53.57;50.85;66.37;;
61321;Laerm;17737;52.586;13.284;2023-09-19T08:50:52;53.56;50.86;58.96;;
61321;Laerm;17737;52.586;13.284;2023-09-19T08:53:27;53.66;50.68;58.94;;
61321;Laerm;17737;52.586;13.284;2023-09-19T08:55:59;53.69;50.76;71.28;;
61321;Laerm;17737;52.586;13.284;2023-09-19T08:58:39;53.82;50.86;58.50;;
61321;Laerm;17737;52.586;13.284;2023-09-19T09:01:13;56.53;51.29;65.85;;
61321;Laerm;17737;52.586;13.284;2023-09-19T09:03:44;54.63;50.79;66.63;;
61321;Laerm;17737;52.586;13.284;2023-09-19T09:06:16;52.64;50.53;56.66;;
61321;Laerm;17737;52.586;13.284;2023-09-19T09:08:45;53.74;50.58;58.45;;
61321;Laerm;17737;52.586;13.284;2023-09-19T09:11:15;53.51;50.92;63.84;;
61321;Laerm;17737;52.586;13.284;2023-09-19T09:13:44;53.51;50.66;59.06;;
61321;Laerm;17737;52.586;13.284;2023-09-19T09:16:13;53.66;50.74;62.31;;
61321;Laerm;17737;52.586;13.284;2023-09-19T09:18:45;53.45;50.93;58.13;;
61321;Laerm;17737;52.586;13.284;2023-09-19T09:21:19;53.66;50.76;58.55;;
61321;Laerm;17737;52.586;13.284;2023-09-19T09:23:48;53.28;50.76;62.91;;
61321;Laerm;17737;52.586;13.284;2023-09-19T09:26:41;53.21;50.76;60.06;;
61321;Laerm;17737;52.586;13.284;2023-09-19T09:29:10;52.95;50.80;63.43;;
61321;Laerm;17737;52.586;13.284;2023-09-19T09:31:44;54.28;50.73;60.56;;
61321;Laerm;17737;52.586;13.284;2023-09-19T09:34:15;52.87;50.73;56.05;;
61321;Laerm;17737;52.586;13.284;2023-09-19T09:36:48;52.80;50.59;59.22;;
61321;Laerm;17737;52.586;13.284;2023-09-19T09:39:30;53.22;50.80;58.01;;
61321;Laerm;17737;52.586;13.284;2023-09-19T09:41:59;52.79;50.52;65.41;;
61321;Laerm;17737;52.586;13.284;2023-09-19T09:44:27;53.52;50.66;59.75;;
61321;Laerm;17737;52.586;13.284;2023-09-19T09:46:58;53.62;50.44;63.36;;
61321;Laerm;17737;52.586;13.284;2023-09-19T09:49:49;53.59;50.83;58.27;;
61321;Laerm;17737;52.586;13.284;2023-09-19T09:52:45;53.75;50.38;61.74;;
61321;Laerm;17737;52.586;13.284;2023-09-19T09:55:13;53.65;50.31;63.78;;
61321;Laerm;17737;52.586;13.284;2023-09-19T09:57:41;53.67;50.64;60.81;;
61321;Laerm;17737;52.586;13.284;2023-09-19T10:00:12;53.40;50.65;63.15;;
61321;Laerm;17737;52.586;13.284;2023-09-19T10:02:47;53.38;50.66;57.44;;
61321;Laerm;17737;52.586;13.284;2023-09-19T10:05:20;53.34;50.55;63.61;;
61321;Laerm;17737;52.586;13.284;2023-09-19T10:08:11;53.33;50.65;59.62;;
61321;Laerm;17737;52.586;13.284;2023-09-19T10:10:42;54.21;50.72;59.57;;
61321;Laerm;17737;52.586;13.284;2023-09-19T10:13:22;53.51;50.73;64.65;;
61321;Laerm;17737;52.586;13.284;2023-09-19T10:15:55;53.89;50.75;58.90;;
61321;Laerm;17737;52.586;13.284;2023-09-19T10:18:26;54.37;50.89;66.16;;
61321;Laerm;17737;52.586;13.284;2023-09-19T10:20:59;52.96;50.46;64.44;;
61321;Laerm;17737;52.586;13.284;2023-09-19T10:23:39;54.02;50.94;63.54;;
61321;Laerm;17737;52.586;13.284;2023-09-19T10:26:11;54.41;50.96;64.35;;
61321;Laerm;17737;52.586;13.284;2023-09-19T10:28:47;53.44;50.69;61.80;;
61321;Laerm;17737;52.586;13.284;2023-09-19T10:31:20;53.27;50.76;63.22;;
61321;Laerm;17737;52.586;13.284;2023-09-19T10:33:53;52.97;50.78;57.51;;
61321;Laerm;17737;52.586;13.284;2023-09-19T10:36:26;53.46;50.94;59.52;;
61321;Laerm;17737;52.586;13.284;2023-09-19T10:38:58;53.71;50.57;61.32;;
61321;Laerm;17737;52.586;13.284;2023-09-19T10:41:32;53.52;50.62;61.82;;
61321;Laerm;17737;52.586;13.284;2023-09-19T10:44:03;52.76;50.49;66.37;;
61321;Laerm;17737;52.586;13.284;2023-09-19T10:46:33;53.01;50.92;56.63;;
61321;Laerm;17737;52.586;13.284;2023-09-19T10:49:02;53.17;50.69;63.24;;
61321;Laerm;17737;52.586;13.284;2023-09-19T10:51:39;53.67;50.52;64.56;;
61321;Laerm;17737;52.586;13.284;2023-09-19T10:54:13;53.37;50.82;60.13;;
61321;Laerm;17737;52.586;13.284;2023-09-19T10:56:48;53.07;50.39;58.59;;
61321;Laerm;17737;52.586;13.284;2023-09-19T10:59:18;53.75;50.86;58.91;;
61321;Laerm;17737;52.586;13.284;2023-09-19T11:01:49;55.12;50.72;66.32;;
61321;Laerm;17737;52.586;13.284;2023-09-19T11:04:26;52.92;50.43;66.97;;
61321;Laerm;17737;52.586;13.284;2023-09-19T11:07:06;53.60;50.86;60.81;;
61321;Laerm;17737;52.586;13.284;2023-09-19T11:09:47;53.75;50.94;61.38;;
61321;Laerm;17737;52.586;13.284;2023-09-19T11:12:49;53.19;50.70;58.60;;
61321;Laerm;17737;52.586;13.284;2023-09-19T11:16:06;53.10;50.74;57.77;;
61321;Laerm;17737;52.586;13.284;2023-09-19T11:18:55;53.81;50.75;62.24;;
61321;Laerm;17737;52.586;13.284;2023-09-19T11:21:52;53.54;50.85;60.41;;
61321;Laerm;17737;52.586;13.284;2023-09-19T11:24:32;53.47;50.67;63.07;;
61321;Laerm;17737;52.586;13.284;2023-09-19T11:27:11;53.50;50.83;59.81;;
61321;Laerm;17737;52.586;13.284;2023-09-19T11:29:41;54.40;50.62;64.49;;
61321;Laerm;17737;52.586;13.284;2023-09-19T11:32:09;53.68;50.70;62.64;;
61321;Laerm;17737;52.586;13.284;2023-09-19T11:34:47;52.97;50.67;59.46;;
61321;Laerm;17737;52.586;13.284;2023-09-19T11:37:59;53.95;50.71;60.05;;
61321;Laerm;17737;52.586;13.284;2023-09-19T11:40:45;53.27;50.74;61.18;;
61321;Laerm;17737;52.586;13.284;2023-09-19T11:43:30;53.18;50.42;60.19;;
61321;Laerm;17737;52.586;13.284;2023-09-19T11:46:08;54.24;50.81;63.53;;
61321;Laerm;17737;52.586;13.284;2023-09-19T11:48:41;54.07;50.87;60.58;;
61321;Laerm;17737;52.586;13.284;2023-09-19T11:51:19;53.57;50.60;59.15;;
61321;Laerm;17737;52.586;13.284;2023-09-19T11:53:57;54.20;50.84;60.21;;
61321;Laerm;17737;52.586;13.284;2023-09-19T11:56:28;53.48;50.41;57.49;;
61321;Laerm;17737;52.586;13.284;2023-09-19T11:59:01;55.08;50.83;66.58;;
61321;Laerm;17737;52.586;13.284;2023-09-19T12:01:32;53.30;50.73;62.18;;
61321;Laerm;17737;52.586;13.284;2023-09-19T12:04:05;53.06;50.74;58.23;;
61321;Laerm;17737;52.586;13.284;2023-09-19T12:06:34;54.29;50.72;60.49;;
61321;Laerm;17737;52.586;13.284;2023-09-19T12:09:03;53.40;50.87;60.46;;
61321;Laerm;17737;52.586;13.284;2023-09-19T12:11:42;52.63;50.68;57.20;;
61321;Laerm;17737;52.586;13.284;2023-09-19T12:14:12;52.48;50.73;57.30;;
61321;Laerm;17737;52.586;13.284;2023-09-19T12:16:53;53.95;50.79;62.93;;
61321;Laerm;17737;52.586;13.284;2023-09-19T12:19:23;53.67;50.91;58.69;;
61321;Laerm;17737;52.586;13.284;2023-09-19T12:21:56;54.87;51.27;67.25;;
61321;Laerm;17737;52.586;13.284;2023-09-19T12:24:27;53.38;50.90;58.06;;
61321;Laerm;17737;52.586;13.284;2023-09-19T12:27:04;53.31;50.87;59.26;;
61321;Laerm;17737;52.586;13.284;2023-09-19T12:29:43;52.94;50.58;56.95;;
61321;Laerm;17737;52.586;13.284;2023-09-19T12:32:12;53.91;50.68;64.38;;
61321;Laerm;17737;52.586;13.284;2023-09-19T12:34:52;53.32;50.91;60.91;;
61321;Laerm;17737;52.586;13.284;2023-09-19T12:37:22;53.48;50.76;57.92;;
61321;Laerm;17737;52.586;13.284;2023-09-19T12:40:04;53.92;51.02;61.51;;
61321;Laerm;17737;52.586;13.284;2023-09-19T12:42:45;53.43;50.73;62.92;;
61321;Laerm;17737;52.586;13.284;2023-09-19T12:45:15;53.90;50.30;60.63;;
61321;Laerm;17737;52.586;13.284;2023-09-19T12:48:17;56.20;50.99;73.63;;
61321;Laerm;17737;52.586;13.284;2023-09-19T12:51:01;54.52;50.72;69.15;;
61321;Laerm;17737;52.586;13.284;2023-09-19T12:53:34;53.62;50.70;58.82;;
61321;Laerm;17737;52.586;13.284;2023-09-19T12:56:07;54.65;51.10;73.41;;
61321;Laerm;17737;52.586;13.284;2023-09-19T12:58:51;53.22;50.60;63.24;;
61321;Laerm;17737;52.586;13.284;2023-09-19T13:01:21;53.63;50.92;58.45;;
61321;Laerm;17737;52.586;13.284;2023-09-19T13:04:16;54.00;50.66;65.48;;
61321;Laerm;17737;52.586;13.284;2023-09-19T13:06:52;53.01;50.50;60.69;;
61321;Laerm;17737;52.586;13.284;2023-09-19T13:09:23;53.07;50.78;63.20;;
61321;Laerm;17737;52.586;13.284;2023-09-19T13:11:58;53.58;51.14;58.22;;
61321;Laerm;17737;52.586;13.284;2023-09-19T13:14:30;52.86;50.74;59.58;;
61321;Laerm;17737;52.586;13.284;2023-09-19T13:17:01;54.17;50.70;60.88;;
61321;Laerm;17737;52.586;13.284;2023-09-19T13:19:44;54.51;50.94;64.39;;
61321;Laerm;17737;52.586;13.284;2023-09-19T13:22:41;54.21;50.99;63.60;;
61321;Laerm;17737;52.586;13.284;2023-09-19T13:25:15;53.81;50.75;59.49;;
61321;Laerm;17737;52.586;13.284;2023-09-19T13:27:47;53.72;50.86;60.25;;
61321;Laerm;17737;52.586;13.284;2023-09-19T13:30:21;53.28;50.90;57.35;;
61321;Laerm;17737;52.586;13.284;2023-09-19T13:32:50;53.34;50.79;58.44;;
61321;Laerm;17737;52.586;13.284;2023-09-19T13:35:19;53.47;50.83;60.15;;
61321;Laerm;17737;52.586;13.284;2023-09-19T13:37:49;53.08;50.70;58.48;;
61321;Laerm;17737;52.586;13.284;2023-09-19T13:40:18;54.25;50.62;64.74;;
61321;Laerm;17737;52.586;13.284;2023-09-19T13:42:49;54.15;50.86;61.60;;
61321;Laerm;17737;52.586;13.284;2023-09-19T13:45:22;55.55;51.08;67.85;;
61321;Laerm;17737;52.586;13.284;2023-09-19T13:47:51;55.17;50.82;69.83;;
61321;Laerm;17737;52.586;13.284;2023-09-19T13:50:20;53.21;50.39;61.64;;
61321;Laerm;17737;52.586;13.284;2023-09-19T13:52:51;53.84;50.78;61.13;;
61321;Laerm;17737;52.586;13.284;2023-09-19T13:55:20;52.98;50.94;60.58;;
61321;Laerm;17737;52.586;13.284;2023-09-19T13:57:48;54.87;50.89;60.94;;
61321;Laerm;17737;52.586;13.284;2023-09-19T14:00:19;54.54;50.47;59.26;;
61321;Laerm;17737;52.586;13.284;2023-09-19T14:02:50;53.07;50.80;63.99;;